Time;durP1;ratioP1;P1;durP2;ratioP2;P2;SDS_P1;SDS_P2;PMS_P1;PMS_P2;Temp;Humidity;BMP_temperature;BMP_pressure;BME280_temperature;BME280_humidity;BME280_pressure;Samples;Min_cycle;Max_cycle;Signal;HPM_P1;HPM_P2
2021/09/04 00:00:14;;;;;;;8.67;7.77;;;14.50;99.90;;;;;;5018271;28;20199;-78
2021/09/04 00:02:39;;;;;;;9.10;8.30;;;14.80;99.90;;;;;;5013724;28;20206;-78
2021/09/04 00:05:06;;;;;;;10.57;9.37;;;14.80;99.90;;;;;;5013654;28;20440;-78
2021/09/04 00:07:32;;;;;;;9.50;8.60;;;14.80;99.90;;;;;;5011851;28;20187;-78
2021/09/04 00:09:58;;;;;;;11.50;9.50;;;14.70;99.90;;;;;;5012588;28;20205;-78
2021/09/04 00:12:26;;;;;;;10.30;8.48;;;14.40;99.90;;;;;;5006360;28;20266;-78
2021/09/04 00:14:52;;;;;;;9.80;8.80;;;14.50;99.90;;;;;;5013667;28;20179;-78
2021/09/04 00:17:17;;;;;;;8.98;8.15;;;14.60;99.90;;;;;;5014606;28;20208;-78
2021/09/04 00:19:43;;;;;;;9.23;8.33;;;14.60;99.90;;;;;;5015545;28;20679;-78
2021/09/04 00:22:08;;;;;;;10.30;8.30;;;14.30;99.90;;;;;;5011760;28;20210;-78
2021/09/04 00:24:34;;;;;;;9.70;8.70;;;14.60;99.90;;;;;;5013556;28;20241;-78
2021/09/04 00:26:59;;;;;;;9.43;8.50;;;14.40;99.90;;;;;;5009283;28;20343;-78
2021/09/04 00:29:26;;;;;;;9.57;8.70;;;14.60;99.90;;;;;;5017091;28;20546;-78
2021/09/04 00:31:52;;;;;;;9.45;8.38;;;14.60;99.90;;;;;;5013311;28;20652;-78
2021/09/04 00:34:17;;;;;;;8.60;7.80;;;14.80;99.90;;;;;;5012967;28;20233;-78
2021/09/04 00:36:43;;;;;;;10.97;8.40;;;14.30;99.90;;;;;;5010920;28;20270;-78
2021/09/04 00:39:08;;;;;;;9.03;8.23;;;14.20;99.90;;;;;;5016585;28;20194;-78
2021/09/04 00:41:37;;;;;;;9.73;7.93;;;14.50;99.90;;;;;;5009789;28;20256;-78
2021/09/04 00:44:04;;;;;;;9.15;8.30;;;14.40;99.90;;;;;;5018287;28;20189;-79
2021/09/04 00:46:30;;;;;;;9.80;8.90;;;14.50;99.90;;;;;;5014128;28;20187;-78
2021/09/04 00:48:55;;;;;;;9.43;8.20;;;14.10;99.90;;;;;;5013702;28;20259;-78
2021/09/04 00:51:21;;;;;;;8.43;7.60;;;14.00;99.90;;;;;;5005605;28;20683;-78
2021/09/04 00:53:47;;;;;;;9.20;8.20;;;14.50;99.90;;;;;;5011773;28;20193;-78
2021/09/04 00:56:14;;;;;;;8.77;7.88;;;14.10;99.90;;;;;;5010641;28;20183;-78
2021/09/04 00:58:40;;;;;;;9.50;8.60;;;14.40;99.90;;;;;;5006143;28;20186;-78
2021/09/04 01:01:06;;;;;;;9.82;8.75;;;14.50;99.90;;;;;;5012697;28;20211;-78
2021/09/04 01:03:32;;;;;;;8.60;7.80;;;14.50;99.90;;;;;;5011230;28;20209;-78
2021/09/04 01:05:57;;;;;;;10.23;7.97;;;14.30;99.90;;;;;;5017325;28;20207;-78
2021/09/04 01:08:23;;;;;;;9.23;8.33;;;14.10;99.90;;;;;;5012465;28;20179;-77
2021/09/04 01:10:52;;;;;;;10.90;8.87;;;14.20;99.90;;;;;;5012631;28;20211;-78
2021/09/04 01:13:19;;;;;;;9.07;8.27;;;13.70;99.90;;;;;;5009665;28;20187;-78
2021/09/04 01:15:45;;;;;;;8.93;8.00;;;14.20;99.90;;;;;;5011462;28;20186;-78
2021/09/04 01:18:11;;;;;;;8.97;8.03;;;13.70;99.90;;;;;;5012051;28;20187;-78
2021/09/04 01:20:36;;;;;;;13.17;8.70;;;14.00;99.90;;;;;;5009395;28;20995;-78
2021/09/04 01:23:02;;;;;;;8.40;7.50;;;14.10;99.90;;;;;;5010883;28;20260;-78
2021/09/04 01:25:29;;;;;;;9.30;8.40;;;14.20;99.90;;;;;;5009125;28;20228;-78
2021/09/04 01:27:57;;;;;;;9.35;8.45;;;13.80;99.90;;;;;;5009155;28;20633;-78
2021/09/04 01:30:22;;;;;;;9.20;7.63;;;13.70;99.90;;;;;;5010766;28;20206;-78
2021/09/04 01:32:48;;;;;;;9.90;8.10;;;13.50;99.90;;;;;;5018402;28;20698;-78
2021/09/04 01:35:20;;;;;;;8.17;7.40;;;13.60;99.90;;;;;;5009941;28;20225;-78
2021/09/04 01:37:46;;;;;;;9.25;8.38;;;14.10;99.90;;;;;;5011333;28;20674;-78
2021/09/04 01:40:13;;;;;;;8.03;7.30;;;14.00;99.90;;;;;;5011394;28;20210;-78
2021/09/04 01:42:39;;;;;;;9.13;8.23;;;14.00;99.90;;;;;;5006110;28;20919;-78
2021/09/04 01:45:06;;;;;;;9.38;8.48;;;14.30;99.90;;;;;;5015667;28;20185;-78
2021/09/04 01:47:31;;;;;;;9.70;8.73;;;14.10;99.90;;;;;;5025301;28;20219;-78
2021/09/04 01:49:57;;;;;;;9.43;7.80;;;13.70;99.90;;;;;;5006805;28;20230;-78
2021/09/04 01:52:23;;;;;;;10.03;8.40;;;14.10;99.90;;;;;;5006844;28;20198;-78
2021/09/04 01:54:52;;;;;;;10.57;8.95;;;14.10;99.90;;;;;;5011268;28;20195;-78
2021/09/04 01:57:19;;;;;;;8.98;8.07;;;13.60;99.90;;;;;;5011413;28;20712;-78
2021/09/04 01:59:46;;;;;;;12.98;9.60;;;13.60;99.90;;;;;;5012111;28;20868;-78
2021/09/04 02:02:12;;;;;;;12.30;9.23;;;13.70;99.90;;;;;;5011960;28;20283;-78
2021/09/04 02:04:38;;;;;;;8.68;7.88;;;14.00;99.90;;;;;;5015871;28;20181;-78
2021/09/04 02:07:04;;;;;;;9.87;8.83;;;14.10;99.90;;;;;;5006508;28;20542;-78
2021/09/04 02:09:30;;;;;;;8.70;7.80;;;13.60;99.90;;;;;;5012452;28;20221;-78
2021/09/04 02:11:56;;;;;;;8.60;7.80;;;13.40;99.90;;;;;;5006319;28;20562;-78
2021/09/04 02:14:21;;;;;;;8.23;7.43;;;13.40;99.90;;;;;;5011096;28;20928;-78
2021/09/04 02:16:47;;;;;;;8.70;7.63;;;13.60;99.90;;;;;;5015160;28;20818;-78
2021/09/04 02:19:12;;;;;;;8.90;7.90;;;13.30;99.90;;;;;;5009557;28;20191;-78
2021/09/04 02:21:38;;;;;;;13.57;8.30;;;13.50;99.90;;;;;;5006213;28;20729;-79
2021/09/04 02:24:04;;;;;;;10.03;8.80;;;13.30;99.90;;;;;;5013230;28;20192;-78
2021/09/04 02:26:29;;;;;;;8.67;7.87;;;13.50;99.90;;;;;;5011098;28;20264;-78
2021/09/04 02:28:55;;;;;;;8.97;8.07;;;13.30;99.90;;;;;;5011904;28;20935;-78
2021/09/04 02:31:24;;;;;;;9.30;8.40;;;13.80;99.90;;;;;;5017118;28;20207;-79
2021/09/04 02:33:54;;;;;;;9.05;7.80;;;13.70;99.90;;;;;;5011691;28;20461;-78
2021/09/04 02:36:20;;;;;;;8.68;7.25;;;13.70;99.90;;;;;;5004483;28;20182;-78
2021/09/04 02:38:46;;;;;;;8.77;7.90;;;13.50;99.90;;;;;;5017141;28;20186;-78
2021/09/04 02:41:12;;;;;;;9.15;8.25;;;13.40;99.90;;;;;;5012383;28;20245;-78
2021/09/04 02:43:38;;;;;;;10.20;8.17;;;13.70;99.90;;;;;;5009289;28;20249;-78
2021/09/04 02:46:04;;;;;;;8.50;7.40;;;13.30;99.90;;;;;;5010091;28;20855;-79
2021/09/04 02:48:29;;;;;;;9.53;7.90;;;13.70;99.90;;;;;;5011736;28;20452;-78
2021/09/04 02:50:55;;;;;;;9.50;8.60;;;13.50;99.90;;;;;;5015585;28;20198;-78
2021/09/04 02:53:20;;;;;;;10.07;8.90;;;13.70;99.90;;;;;;5005419;28;20198;-78
2021/09/04 02:55:46;;;;;;;9.20;8.30;;;13.30;99.90;;;;;;5012874;28;20179;-78
2021/09/04 02:58:11;;;;;;;10.37;8.40;;;13.60;99.90;;;;;;5008231;28;20187;-78
2021/09/04 03:00:37;;;;;;;8.40;7.60;;;13.70;99.90;;;;;;5014018;28;20226;-79
2021/09/04 03:03:02;;;;;;;8.40;7.60;;;13.20;99.90;;;;;;5013473;28;20218;-78
2021/09/04 03:05:28;;;;;;;9.37;8.40;;;13.30;99.90;;;;;;5009970;28;20179;-78
2021/09/04 03:07:53;;;;;;;10.27;8.47;;;13.20;99.90;;;;;;5017846;28;20182;-78
2021/09/04 03:10:19;;;;;;;9.03;8.13;;;13.50;99.90;;;;;;5008951;28;20210;-78
2021/09/04 03:12:45;;;;;;;8.97;8.13;;;13.90;99.90;;;;;;5010944;28;20244;-78
2021/09/04 03:15:11;;;;;;;10.83;8.30;;;13.50;99.90;;;;;;5009792;28;20448;-78
2021/09/04 03:17:37;;;;;;;8.25;7.43;;;13.50;99.90;;;;;;5007879;28;20245;-78
2021/09/04 03:20:03;;;;;;;8.50;7.60;;;13.20;99.90;;;;;;5006275;28;20198;-77
2021/09/04 03:22:28;;;;;;;10.07;8.45;;;13.20;99.90;;;;;;5008922;28;20537;-77
2021/09/04 03:24:54;;;;;;;9.23;8.23;;;13.40;99.90;;;;;;5011143;28;20222;-78
2021/09/04 03:27:19;;;;;;;11.17;8.30;;;13.30;99.90;;;;;;5011712;28;20218;-78
2021/09/04 03:29:45;;;;;;;9.30;8.40;;;13.00;99.90;;;;;;5010128;28;20210;-78
2021/09/04 03:32:10;;;;;;;8.47;7.67;;;12.90;99.90;;;;;;5010292;28;20588;-78
2021/09/04 03:34:36;;;;;;;8.60;7.70;;;13.00;99.90;;;;;;5006919;28;20178;-78
2021/09/04 03:37:02;;;;;;;7.53;6.83;;;13.60;99.90;;;;;;5009673;28;20187;-78
2021/09/04 03:39:27;;;;;;;8.40;7.50;;;13.30;99.90;;;;;;5009670;28;20237;-78
2021/09/04 03:41:53;;;;;;;8.27;7.53;;;13.20;99.90;;;;;;5005026;28;20726;-78
2021/09/04 03:44:18;;;;;;;8.87;8.07;;;13.30;99.90;;;;;;5009979;28;20237;-78
2021/09/04 03:46:44;;;;;;;9.67;8.53;;;13.30;99.90;;;;;;5018055;28;20179;-77
2021/09/04 03:49:09;;;;;;;9.57;8.57;;;12.80;99.90;;;;;;5009922;28;20274;-78
2021/09/04 03:51:35;;;;;;;10.63;7.90;;;13.00;99.90;;;;;;5009076;28;20680;-78
2021/09/04 03:54:01;;;;;;;8.60;7.80;;;13.10;99.90;;;;;;5007993;28;20179;-78
2021/09/04 03:56:26;;;;;;;8.90;7.93;;;12.50;99.90;;;;;;5007425;28;20190;-77
2021/09/04 03:58:52;;;;;;;8.27;7.47;;;12.80;99.90;;;;;;5007586;28;20229;-78
2021/09/04 04:01:18;;;;;;;8.67;7.77;;;13.10;99.90;;;;;;5008589;28;20210;-78
2021/09/04 04:03:44;;;;;;;8.93;7.65;;;12.70;99.90;;;;;;5014429;28;20206;-78
2021/09/04 04:06:10;;;;;;;8.77;7.93;;;13.10;99.90;;;;;;5015909;28;20601;-78
2021/09/04 04:08:35;;;;;;;7.57;6.87;;;12.90;99.90;;;;;;5009766;28;20207;-78
2021/09/04 04:11:05;;;;;;;7.97;7.27;;;12.90;99.90;;;;;;5012641;28;20198;-78
2021/09/04 04:13:31;;;;;;;8.20;7.40;;;13.10;99.90;;;;;;5002004;28;20179;-77
2021/09/04 04:15:57;;;;;;;10.10;8.40;;;12.60;99.90;;;;;;5007220;28;20652;-77
2021/09/04 04:18:22;;;;;;;8.23;7.50;;;13.40;99.90;;;;;;5007153;28;20881;-78
2021/09/04 04:20:48;;;;;;;8.00;7.20;;;13.10;99.90;;;;;;5007639;28;20794;-78
2021/09/04 04:23:13;;;;;;;8.40;7.60;;;13.10;99.90;;;;;;5014140;28;20401;-78
2021/09/04 04:25:39;;;;;;;8.03;7.33;;;12.90;99.90;;;;;;5010435;28;20555;-77
2021/09/04 04:28:04;;;;;;;8.77;7.57;;;13.00;99.90;;;;;;5006047;28;20675;-77
2021/09/04 04:30:30;;;;;;;10.00;7.70;;;12.80;99.90;;;;;;5004067;28;20612;-78
2021/09/04 04:32:55;;;;;;;10.33;8.63;;;12.50;99.90;;;;;;5013220;28;20195;-77
2021/09/04 04:35:21;;;;;;;9.80;7.37;;;12.80;99.90;;;;;;5018509;28;20250;-77
2021/09/04 04:37:47;;;;;;;12.03;9.13;;;12.90;99.90;;;;;;5012948;28;20190;-77
2021/09/04 04:40:12;;;;;;;8.33;7.53;;;12.30;99.90;;;;;;5007087;28;20221;-77
2021/09/04 04:42:38;;;;;;;8.20;7.40;;;12.80;99.90;;;;;;5013858;28;20297;-77
2021/09/04 04:45:05;;;;;;;9.30;7.90;;;12.80;99.90;;;;;;5008171;28;20498;-77
2021/09/04 04:47:32;;;;;;;8.48;7.68;;;13.00;99.90;;;;;;5012832;28;20183;-79
2021/09/04 04:49:58;;;;;;;8.70;7.80;;;12.80;99.90;;;;;;5006865;28;21943;-77
2021/09/04 04:52:24;;;;;;;8.88;7.85;;;12.80;99.90;;;;;;5010503;28;20183;-78
2021/09/04 04:54:50;;;;;;;8.80;7.23;;;12.60;99.90;;;;;;5004922;28;20210;-77
2021/09/04 04:57:15;;;;;;;8.17;7.37;;;12.90;99.90;;;;;;5002694;28;20213;-77
2021/09/04 04:59:41;;;;;;;9.90;8.00;;;12.80;99.90;;;;;;5008925;28;20573;-78
2021/09/04 05:02:06;;;;;;;8.27;7.37;;;12.50;99.90;;;;;;5023553;28;20205;-78
2021/09/04 05:04:32;;;;;;;8.83;8.00;;;12.50;99.90;;;;;;5016020;28;20188;-78
2021/09/04 05:06:58;;;;;;;8.33;7.53;;;12.80;99.90;;;;;;5007626;28;20647;-78
2021/09/04 05:09:23;;;;;;;8.63;7.83;;;12.90;99.90;;;;;;5011543;28;20464;-77
2021/09/04 05:11:49;;;;;;;9.03;8.10;;;12.70;99.90;;;;;;5012088;28;20199;-78
2021/09/04 05:14:14;;;;;;;8.73;7.90;;;12.80;99.90;;;;;;5011037;28;20209;-78
2021/09/04 05:16:40;;;;;;;9.00;8.10;;;13.00;99.90;;;;;;5008298;28;20191;-78
2021/09/04 05:19:05;;;;;;;8.70;7.80;;;12.40;99.90;;;;;;5014650;28;20233;-78
2021/09/04 05:21:31;;;;;;;9.97;8.47;;;12.40;99.90;;;;;;5012317;28;20218;-79
2021/09/04 05:23:57;;;;;;;9.30;8.30;;;12.70;99.90;;;;;;5015422;28;20193;-78
2021/09/04 05:26:22;;;;;;;8.60;7.70;;;13.10;99.90;;;;;;5016913;28;20189;-78
2021/09/04 05:28:48;;;;;;;9.50;8.50;;;13.00;99.90;;;;;;5005229;28;20191;-78
2021/09/04 05:31:13;;;;;;;10.80;9.33;;;12.80;99.90;;;;;;5012681;28;20260;-78
2021/09/04 05:33:39;;;;;;;12.03;10.80;;;12.80;99.90;;;;;;5012151;28;20199;-78
2021/09/04 05:36:04;;;;;;;9.10;8.20;;;12.90;99.90;;;;;;5010051;28;20282;-79
2021/09/04 05:38:30;;;;;;;10.00;8.90;;;12.60;99.90;;;;;;5007335;28;20183;-78
2021/09/04 05:40:56;;;;;;;11.07;9.33;;;12.60;99.90;;;;;;5008758;28;20266;-79
2021/09/04 05:43:21;;;;;;;10.03;9.00;;;13.40;99.90;;;;;;5008714;28;20214;-78
2021/09/04 05:45:48;;;;;;;9.57;8.47;;;12.70;99.90;;;;;;5007325;28;20253;-78
2021/09/04 05:48:13;;;;;;;9.68;8.70;;;13.10;99.90;;;;;;5009424;28;20187;-78
2021/09/04 05:50:39;;;;;;;9.63;8.73;;;13.10;99.90;;;;;;5006536;28;20217;-79
2021/09/04 05:53:04;;;;;;;11.23;8.63;;;13.30;99.90;;;;;;5010083;28;20252;-78
2021/09/04 05:55:30;;;;;;;10.73;9.63;;;13.30;99.90;;;;;;5010315;28;20183;-78
2021/09/04 05:57:55;;;;;;;11.90;10.43;;;13.30;99.90;;;;;;4997881;28;20209;-78
2021/09/04 06:00:21;;;;;;;10.50;9.50;;;13.40;99.90;;;;;;5010638;28;20743;-78
2021/09/04 06:02:46;;;;;;;8.47;7.63;;;13.60;99.90;;;;;;5007934;28;20206;-78
2021/09/04 06:05:12;;;;;;;11.33;10.07;;;13.30;99.90;;;;;;5006080;28;20217;-77
2021/09/04 06:07:38;;;;;;;10.53;9.07;;;13.60;99.90;;;;;;5011070;28;20551;-78
2021/09/04 06:10:04;;;;;;;10.60;9.50;;;13.70;99.90;;;;;;5015371;28;20207;-78
2021/09/04 06:12:30;;;;;;;11.90;10.68;;;13.90;99.90;;;;;;5005745;28;20277;-78
2021/09/04 06:14:55;;;;;;;12.30;11.10;;;13.60;99.90;;;;;;5011365;28;20274;-79
2021/09/04 06:17:21;;;;;;;11.57;10.00;;;13.70;99.90;;;;;;5008848;28;20190;-81
2021/09/04 06:19:46;;;;;;;11.80;10.00;;;14.00;99.90;;;;;;5011081;28;20226;-82
2021/09/04 06:22:12;;;;;;;10.93;9.80;;;14.60;99.90;;;;;;5008724;28;20778;-80
2021/09/04 06:24:37;;;;;;;13.03;10.83;;;14.50;99.90;;;;;;5010124;28;20183;-80
2021/09/04 06:27:03;;;;;;;14.33;11.00;;;14.40;99.90;;;;;;5008724;28;20299;-81
2021/09/04 06:29:29;;;;;;;12.20;11.00;;;14.80;99.90;;;;;;5010330;28;20564;-79
2021/09/04 06:31:54;;;;;;;12.43;11.23;;;14.60;99.90;;;;;;5011585;28;20183;-80
2021/09/04 06:34:20;;;;;;;11.67;10.57;;;14.90;99.90;;;;;;5011473;28;20198;-80
2021/09/04 06:36:46;;;;;;;13.60;11.17;;;15.00;99.90;;;;;;5004225;28;20197;-82
2021/09/04 06:39:11;;;;;;;12.17;10.30;;;14.50;99.90;;;;;;5011516;28;20182;-81
2021/09/04 06:41:37;;;;;;;10.87;9.77;;;15.10;99.90;;;;;;5008117;28;20230;-81
2021/09/04 06:44:02;;;;;;;11.33;10.23;;;15.40;99.90;;;;;;5026287;28;20678;-79
2021/09/04 06:46:32;;;;;;;12.83;9.57;;;15.40;99.90;;;;;;5010936;28;20545;-79
2021/09/04 06:48:59;;;;;;;10.98;9.88;;;15.40;99.90;;;;;;5011179;28;20179;-83
2021/09/04 06:51:25;;;;;;;11.88;10.68;;;15.70;99.90;;;;;;5012459;28;20369;-82
2021/09/04 06:53:51;;;;;;;11.68;10.55;;;16.10;99.90;;;;;;5010612;28;20183;-81
2021/09/04 06:56:17;;;;;;;10.73;9.82;;;15.90;99.90;;;;;;5011274;28;20225;-80
2021/09/04 06:58:42;;;;;;;14.63;10.40;;;16.10;99.90;;;;;;5012629;28;20206;-80
2021/09/04 07:01:08;;;;;;;10.70;9.20;;;16.90;99.90;;;;;;5011024;28;20253;-81
2021/09/04 07:03:33;;;;;;;13.03;9.00;;;18.60;99.90;;;;;;5013728;28;20187;-82
2021/09/04 07:05:59;;;;;;;9.80;8.80;;;20.50;99.90;;;;;;5010348;28;20187;-83
2021/09/04 07:08:25;;;;;;;10.87;9.80;;;22.90;99.50;;;;;;5009163;28;20555;-81
2021/09/04 07:10:50;;;;;;;9.87;8.97;;;25.00;93.20;;;;;;5008722;28;20206;-83
2021/09/04 07:13:16;;;;;;;10.20;9.30;;;25.50;90.50;;;;;;5010714;28;20200;-83
2021/09/04 07:15:42;;;;;;;9.73;8.80;;;27.40;86.20;;;;;;5012372;28;20240;-83
2021/09/04 07:18:08;;;;;;;8.80;8.00;;;28.10;80.80;;;;;;5009314;28;20681;-83
2021/09/04 07:20:33;;;;;;;10.10;9.20;;;29.30;75.40;;;;;;5008749;28;20553;-83
2021/09/04 07:22:59;;;;;;;9.03;8.33;;;29.90;70.50;;;;;;5009726;28;20222;-80
2021/09/04 07:25:24;;;;;;;10.07;9.07;;;29.30;68.70;;;;;;5010110;28;20212;-79
2021/09/04 07:27:50;;;;;;;9.40;8.50;;;29.30;71.30;;;;;;5009403;28;20189;-80
2021/09/04 07:30:16;;;;;;;10.57;9.67;;;29.50;70.10;;;;;;5004914;28;20207;-80
2021/09/04 07:32:42;;;;;;;8.93;8.10;;;30.70;65.60;;;;;;5007874;28;20237;-80
2021/09/04 07:35:08;;;;;;;9.90;9.00;;;32.80;61.70;;;;;;5010266;28;20464;-80
2021/09/04 07:37:34;;;;;;;9.60;8.80;;;34.50;57.00;;;;;;5007452;28;20450;-83
2021/09/04 07:40:00;;;;;;;10.20;9.40;;;35.70;53.60;;;;;;5009914;28;20465;-82
2021/09/04 07:42:25;;;;;;;9.50;8.70;;;36.90;50.70;;;;;;5007894;28;20625;-82
2021/09/04 07:44:51;;;;;;;9.60;8.90;;;37.20;48.70;;;;;;5017756;28;20210;-81
2021/09/04 07:47:16;;;;;;;8.60;7.90;;;37.00;47.60;;;;;;5013749;28;20190;-81
2021/09/04 07:49:42;;;;;;;9.60;8.90;;;37.70;46.90;;;;;;5005333;28;20290;-82
2021/09/04 07:52:08;;;;;;;10.20;9.30;;;38.10;46.00;;;;;;5009848;28;20281;-83
2021/09/04 07:54:33;;;;;;;11.67;10.77;;;38.70;44.60;;;;;;5003289;28;20364;-82
2021/09/04 07:56:59;;;;;;;8.70;8.00;;;39.30;43.70;;;;;;5004885;28;20532;-82
2021/09/04 07:59:25;;;;;;;9.17;8.30;;;39.90;42.30;;;;;;5005519;28;20206;-82
2021/09/04 08:01:50;;;;;;;9.30;8.60;;;40.20;41.00;;;;;;4998456;28;20215;-83
2021/09/04 08:04:16;;;;;;;9.23;8.60;;;40.00;40.40;;;;;;5002351;28;20196;-83
2021/09/04 08:06:41;;;;;;;10.03;9.23;;;39.90;40.50;;;;;;5011118;28;20635;-83
2021/09/04 08:09:08;;;;;;;9.37;8.47;;;40.00;41.20;;;;;;5008976;28;20265;-83
2021/09/04 08:11:33;;;;;;;8.40;7.80;;;40.40;40.00;;;;;;5007147;28;20277;-83
2021/09/04 08:14:00;;;;;;;9.03;8.33;;;40.40;39.10;;;;;;5029254;28;20536;-82
2021/09/04 08:16:25;;;;;;;8.37;7.70;;;40.30;39.10;;;;;;5025494;28;20191;-83
2021/09/04 08:18:51;;;;;;;8.37;7.77;;;40.40;39.00;;;;;;5014390;28;20446;-83
2021/09/04 08:21:16;;;;;;;8.07;7.47;;;40.40;38.90;;;;;;5016476;28;20242;-83
2021/09/04 08:23:42;;;;;;;8.13;7.33;;;39.90;38.50;;;;;;5009648;28;20193;-83
2021/09/04 08:26:07;;;;;;;7.77;7.27;;;39.50;39.50;;;;;;5012933;28;20260;-83
2021/09/04 08:28:33;;;;;;;8.57;7.97;;;39.90;39.10;;;;;;5010730;28;20217;-83
2021/09/04 08:30:59;;;;;;;9.87;8.97;;;40.30;38.60;;;;;;5016798;28;20232;-82
2021/09/04 08:33:24;;;;;;;8.37;7.80;;;40.40;38.10;;;;;;5015070;28;20690;-82
2021/09/04 08:35:50;;;;;;;8.43;7.83;;;40.50;38.20;;;;;;5011684;28;20240;-82
2021/09/04 08:38:15;;;;;;;9.00;8.20;;;38.30;40.70;;;;;;5010210;28;20271;-82
2021/09/04 08:40:43;;;;;;;7.70;7.10;;;39.20;39.60;;;;;;5013705;28;20222;-82
2021/09/04 08:43:10;;;;;;;8.87;8.13;;;39.20;39.60;;;;;;5012923;28;20276;-82
2021/09/04 08:45:36;;;;;;;7.77;7.17;;;37.90;40.70;;;;;;5018220;28;20973;-82
2021/09/04 08:48:02;;;;;;;8.03;7.40;;;38.80;40.00;;;;;;5015866;28;20528;-82
2021/09/04 08:50:28;;;;;;;8.00;7.40;;;38.80;39.60;;;;;;5011858;28;20206;-81
2021/09/04 08:52:55;;;;;;;7.80;7.20;;;38.10;40.40;;;;;;5021619;28;20475;-81
2021/09/04 08:55:25;;;;;;;9.30;8.60;;;38.10;40.80;;;;;;5014014;28;20551;-81
2021/09/04 08:57:51;;;;;;;7.17;6.67;;;37.40;40.70;;;;;;5006455;28;20445;-81
2021/09/04 09:00:33;;;;;;;9.63;8.83;;;35.80;43.50;;;;;;5012784;28;20512;-81
2021/09/04 09:03:01;;;;;;;7.67;6.97;;;34.70;45.40;;;;;;5018229;28;20555;-81
2021/09/04 09:05:38;;;;;;;6.93;6.33;;;33.30;47.10;;;;;;5012728;28;20997;-81
2021/09/04 09:08:03;;;;;;;7.33;6.70;;;32.60;49.10;;;;;;5012462;28;20520;-81
2021/09/04 09:10:32;;;;;;;7.60;6.90;;;31.60;49.80;;;;;;5011899;28;21066;-81
2021/09/04 09:12:58;;;;;;;8.83;7.53;;;30.00;53.80;;;;;;5017588;28;20201;-81
2021/09/04 09:15:37;;;;;;;8.90;8.10;;;29.50;54.70;;;;;;5014101;28;20443;-80
2021/09/04 09:18:12;;;;;;;11.10;10.10;;;28.20;57.80;;;;;;5014363;28;20275;-81
2021/09/04 09:20:39;;;;;;;7.73;6.93;;;28.00;59.00;;;;;;5006356;28;20521;-81
2021/09/04 09:23:07;;;;;;;6.80;6.20;;;27.50;59.80;;;;;;5012078;28;20477;-80
2021/09/04 09:25:36;;;;;;;8.30;7.50;;;27.00;62.50;;;;;;5016390;28;20472;-81
2021/09/04 09:28:10;;;;;;;7.10;6.50;;;26.60;63.90;;;;;;5008046;28;20453;-80
2021/09/04 09:30:39;;;;;;;10.27;6.00;;;26.30;65.60;;;;;;5020077;28;20471;-81
2021/09/04 09:33:07;;;;;;;6.97;6.27;;;25.80;65.50;;;;;;5011676;28;20486;-80
2021/09/04 09:35:41;;;;;;;6.60;6.00;;;26.10;67.80;;;;;;5010763;28;20477;-81
2021/09/04 09:38:08;;;;;;;6.73;6.10;;;25.80;67.90;;;;;;5009764;28;20460;-80
2021/09/04 09:40:35;;;;;;;7.73;6.43;;;25.90;68.30;;;;;;5024239;28;20991;-81
2021/09/04 09:43:01;;;;;;;6.40;5.80;;;26.20;67.00;;;;;;5005564;28;20977;-80
2021/09/04 09:45:44;;;;;;;6.00;5.40;;;27.30;64.10;;;;;;5002684;28;20448;-81
2021/09/04 09:48:09;;;;;;;7.20;6.03;;;27.80;61.20;;;;;;5014586;28;20529;-80
2021/09/04 09:50:35;;;;;;;6.70;6.10;;;28.10;60.10;;;;;;5011951;28;20546;-80
2021/09/04 09:53:03;;;;;;;9.17;6.27;;;28.00;61.10;;;;;;5022305;28;20280;-81
2021/09/04 09:55:29;;;;;;;5.73;5.23;;;27.90;61.80;;;;;;5005739;28;20445;-80
2021/09/04 09:57:57;;;;;;;6.33;5.67;;;27.40;60.20;;;;;;5007303;28;20533;-80
2021/09/04 10:00:24;;;;;;;5.80;5.30;;;26.50;61.80;;;;;;5011516;28;20468;-80
2021/09/04 10:02:51;;;;;;;5.93;5.37;;;26.50;64.20;;;;;;5027630;28;20534;-80
2021/09/04 10:05:20;;;;;;;4.70;4.30;;;26.40;61.70;;;;;;5010509;28;20452;-80
2021/09/04 10:07:47;;;;;;;5.63;5.13;;;26.00;61.40;;;;;;5009424;28;20445;-80
2021/09/04 10:10:12;;;;;;;4.93;4.50;;;26.00;63.10;;;;;;5011670;28;20463;-80
2021/09/04 10:12:38;;;;;;;5.00;4.30;;;25.90;59.20;;;;;;5005745;28;20448;-80
2021/09/04 10:15:05;;;;;;;4.20;3.80;;;25.90;59.20;;;;;;5011783;28;20545;-80
2021/09/04 10:17:31;;;;;;;5.13;4.63;;;25.90;58.50;;;;;;5032443;28;20956;-80
2021/09/04 10:19:57;;;;;;;4.63;4.20;;;25.80;58.60;;;;;;5007067;28;20525;-80
2021/09/04 10:22:22;;;;;;;5.40;4.90;;;25.60;57.60;;;;;;5010998;28;20465;-80
2021/09/04 10:24:50;;;;;;;4.60;4.20;;;25.70;58.20;;;;;;5013181;28;20443;-80
2021/09/04 10:27:34;;;;;;;5.17;4.67;;;25.50;58.70;;;;;;5005606;28;20220;-80
2021/09/04 10:30:38;;;;;;;5.37;4.90;;;25.40;58.20;;;;;;5004580;28;20586;-80
2021/09/04 10:33:13;;;;;;;5.13;4.73;;;25.40;58.60;;;;;;5008147;28;20459;-80
2021/09/04 10:35:52;;;;;;;4.80;4.40;;;25.60;59.40;;;;;;5019026;28;20866;-81
2021/09/04 10:38:17;;;;;;;4.27;3.87;;;25.90;58.80;;;;;;5015016;28;20989;-80
2021/09/04 10:40:43;;;;;;;5.20;4.70;;;26.10;54.50;;;;;;5014622;28;20492;-80
2021/09/04 10:43:09;;;;;;;4.80;4.40;;;26.10;57.50;;;;;;5009860;28;20213;-80
2021/09/04 10:45:37;;;;;;;5.13;4.23;;;25.70;57.60;;;;;;5015903;28;20537;-80
2021/09/04 10:48:19;;;;;;;5.37;4.87;;;25.60;58.60;;;;;;5010688;28;20444;-80
2021/09/04 10:51:07;;;;;;;5.23;4.73;;;25.60;57.70;;;;;;5007927;28;21044;-80
2021/09/04 10:53:44;;;;;;;4.80;4.40;;;25.60;58.10;;;;;;5003520;28;20485;-80
2021/09/04 10:56:24;;;;;;;5.33;4.90;;;25.50;58.20;;;;;;5009545;28;20453;-80
2021/09/04 10:58:51;;;;;;;4.37;4.00;;;25.50;59.00;;;;;;5009544;28;20501;-81
2021/09/04 11:01:35;;;;;;;4.70;4.30;;;25.70;57.70;;;;;;5008112;28;20463;-80
2021/09/04 11:04:01;;;;;;;4.17;3.87;;;25.60;56.80;;;;;;5016317;28;20959;-81
2021/09/04 11:06:27;;;;;;;4.63;4.20;;;25.50;57.90;;;;;;5009955;28;20444;-81
2021/09/04 11:08:54;;;;;;;3.80;3.50;;;25.50;58.60;;;;;;5008545;28;20194;-80
2021/09/04 11:11:49;;;;;;;4.90;4.50;;;25.80;57.20;;;;;;5008195;28;20211;-81
2021/09/04 11:14:20;;;;;;;4.30;3.90;;;25.80;57.10;;;;;;5011781;28;20455;-80
2021/09/04 11:16:51;;;;;;;5.80;4.70;;;25.90;56.70;;;;;;5023910;28;20812;-80
2021/09/04 11:19:16;;;;;;;5.97;5.40;;;26.10;58.10;;;;;;5008060;28;20602;-80
2021/09/04 11:21:55;;;;;;;4.40;4.00;;;26.30;62.60;;;;;;5007997;28;21047;-80
2021/09/04 11:24:34;;;;;;;4.20;3.90;;;26.00;56.20;;;;;;5023528;28;20190;-80
2021/09/04 11:27:09;;;;;;;4.37;3.97;;;26.10;55.70;;;;;;5004541;28;21066;-80
2021/09/04 11:29:47;;;;;;;6.27;5.67;;;26.20;57.00;;;;;;4997710;28;20528;-80
2021/09/04 11:32:15;;;;;;;5.73;5.23;;;26.40;61.90;;;;;;5003535;28;20522;-80
2021/09/04 11:34:45;;;;;;;6.70;6.10;;;26.50;62.20;;;;;;5014662;28;20449;-80
2021/09/04 11:37:21;;;;;;;8.63;7.93;;;26.40;62.50;;;;;;5008100;28;20948;-80
2021/09/04 11:39:49;;;;;;;7.80;7.07;;;26.20;62.00;;;;;;5003870;28;20514;-80
2021/09/04 11:42:16;;;;;;;7.13;6.43;;;26.10;63.20;;;;;;5004875;28;20505;-80
2021/09/04 11:44:50;;;;;;;7.40;6.70;;;26.10;63.70;;;;;;5006885;28;20449;-81
2021/09/04 11:47:16;;;;;;;6.00;5.50;;;26.20;65.00;;;;;;5005897;28;20468;-80
2021/09/04 11:49:44;;;;;;;6.10;5.50;;;26.40;64.70;;;;;;5010914;28;20464;-80
2021/09/04 11:52:17;;;;;;;5.80;5.30;;;26.50;63.90;;;;;;5003433;28;20433;-80
2021/09/04 11:54:42;;;;;;;7.17;5.40;;;26.50;61.40;;;;;;5003466;28;20450;-80
2021/09/04 11:57:28;;;;;;;5.27;4.77;;;26.80;59.70;;;;;;4998787;28;20446;-80
2021/09/04 12:00:22;;;;;;;5.20;4.73;;;27.00;59.30;;;;;;5000975;28;20214;-80
2021/09/04 12:02:58;;;;;;;5.67;5.17;;;27.20;58.20;;;;;;5000803;28;20820;-80
2021/09/04 12:05:26;;;;;;;5.63;5.13;;;27.40;58.20;;;;;;5004252;28;20502;-80
2021/09/04 12:07:56;;;;;;;5.50;5.07;;;27.50;59.00;;;;;;5010793;28;20501;-80
2021/09/04 12:10:27;;;;;;;6.10;5.60;;;27.30;59.60;;;;;;5007955;28;20470;-80
2021/09/04 12:13:04;;;;;;;5.57;5.07;;;27.30;61.10;;;;;;5008400;28;20446;-80
2021/09/04 12:15:32;;;;;;;5.30;4.80;;;27.10;58.80;;;;;;5010433;28;21090;-80
2021/09/04 12:18:03;;;;;;;5.13;4.73;;;27.10;57.40;;;;;;5008019;28;20826;-80
2021/09/04 12:20:37;;;;;;;5.67;5.17;;;27.00;57.70;;;;;;4998789;28;21024;-80
2021/09/04 12:23:18;;;;;;;5.40;4.50;;;27.00;58.00;;;;;;5009393;28;20523;-80
2021/09/04 12:25:46;;;;;;;5.27;4.80;;;26.90;58.50;;;;;;5008491;28;20460;-80
2021/09/04 12:28:14;;;;;;;4.33;3.93;;;27.00;56.10;;;;;;5006871;28;20542;-80
2021/09/04 12:31:00;;;;;;;5.63;4.50;;;27.10;57.00;;;;;;5006862;28;20868;-81
2021/09/04 12:33:27;;;;;;;4.40;4.10;;;26.90;56.30;;;;;;5004926;28;20457;-81
2021/09/04 12:35:56;;;;;;;4.83;4.43;;;27.20;55.80;;;;;;5010101;28;20571;-80
2021/09/04 12:38:29;;;;;;;5.60;5.10;;;26.80;55.80;;;;;;5009331;28;20441;-81
2021/09/04 12:41:07;;;;;;;5.40;4.90;;;26.70;56.60;;;;;;5005739;28;20472;-80
2021/09/04 12:43:52;;;;;;;4.67;4.27;;;26.90;56.30;;;;;;5010317;28;20475;-81